sensor_id;sensor_type;location;lat;lon;timestamp;P1;durP1;ratioP1;P2;durP2;ratioP2
31438;SDS011;18062;48.872;9.220;2022-10-16T15:12:25;0.80;;;0.80;;
31438;SDS011;18062;48.872;9.220;2022-10-16T15:14:51;0.70;;;0.70;;
31438;SDS011;18062;48.872;9.220;2022-10-16T15:17:17;1.10;;;1.00;;
31438;SDS011;18062;48.872;9.220;2022-10-16T15:19:43;1.00;;;0.98;;
31438;SDS011;18062;48.872;9.220;2022-10-16T15:22:10;1.33;;;0.90;;
31438;SDS011;18062;48.872;9.220;2022-10-16T15:24:37;0.82;;;0.80;;
31438;SDS011;18062;48.872;9.220;2022-10-16T15:27:03;0.80;;;0.80;;
31438;SDS011;18062;48.872;9.220;2022-10-16T15:29:29;0.70;;;0.70;;
31438;SDS011;18062;48.872;9.220;2022-10-16T15:31:55;0.82;;;0.82;;
31438;SDS011;18062;48.872;9.220;2022-10-16T15:34:22;1.10;;;1.00;;
31438;SDS011;18062;48.872;9.220;2022-10-16T15:36:48;0.80;;;0.75;;
31438;SDS011;18062;48.872;9.220;2022-10-16T15:39:15;0.77;;;0.77;;
31438;SDS011;18062;48.872;9.220;2022-10-16T15:41:42;0.70;;;0.70;;
31438;SDS011;18062;48.872;9.220;2022-10-16T15:44:08;0.85;;;0.85;;
31438;SDS011;18062;48.872;9.220;2022-10-16T15:46:34;0.80;;;0.80;;
31438;SDS011;18062;48.872;9.220;2022-10-16T15:49:02;0.73;;;0.73;;
31438;SDS011;18062;48.872;9.220;2022-10-16T15:51:28;0.80;;;0.80;;
31438;SDS011;18062;48.872;9.220;2022-10-16T15:53:55;0.80;;;0.80;;
31438;SDS011;18062;48.872;9.220;2022-10-16T15:56:22;0.80;;;0.80;;
31438;SDS011;18062;48.872;9.220;2022-10-16T15:58:50;0.87;;;0.83;;
31438;SDS011;18062;48.872;9.220;2022-10-16T16:01:16;1.07;;;0.97;;
31438;SDS011;18062;48.872;9.220;2022-10-16T16:03:42;0.77;;;0.77;;
31438;SDS011;18062;48.872;9.220;2022-10-16T16:06:10;0.83;;;0.83;;
31438;SDS011;18062;48.872;9.220;2022-10-16T16:08:36;0.90;;;0.90;;
31438;SDS011;18062;48.872;9.220;2022-10-16T16:11:04;0.90;;;0.90;;
31438;SDS011;18062;48.872;9.220;2022-10-16T16:13:30;0.70;;;0.70;;
31438;SDS011;18062;48.872;9.220;2022-10-16T16:15:56;0.90;;;0.90;;
31438;SDS011;18062;48.872;9.220;2022-10-16T16:18:23;0.73;;;0.73;;
31438;SDS011;18062;48.872;9.220;2022-10-16T16:20:53;0.70;;;0.70;;
31438;SDS011;18062;48.872;9.220;2022-10-16T16:23:19;0.83;;;0.83;;
31438;SDS011;18062;48.872;9.220;2022-10-16T16:26:01;1.20;;;1.10;;
31438;SDS011;18062;48.872;9.220;2022-10-16T16:28:27;0.93;;;0.93;;
31438;SDS011;18062;48.872;9.220;2022-10-16T16:30:53;1.33;;;0.80;;
31438;SDS011;18062;48.872;9.220;2022-10-16T16:33:19;0.80;;;0.80;;
31438;SDS011;18062;48.872;9.220;2022-10-16T16:35:55;1.07;;;1.00;;
31438;SDS011;18062;48.872;9.220;2022-10-16T16:38:21;0.90;;;0.90;;
31438;SDS011;18062;48.872;9.220;2022-10-16T16:40:47;1.03;;;0.97;;
31438;SDS011;18062;48.872;9.220;2022-10-16T16:43:13;1.27;;;1.10;;
31438;SDS011;18062;48.872;9.220;2022-10-16T16:45:39;0.70;;;0.70;;
31438;SDS011;18062;48.872;9.220;2022-10-16T16:48:05;1.13;;;1.00;;
31438;SDS011;18062;48.872;9.220;2022-10-16T16:50:35;1.00;;;1.00;;
31438;SDS011;18062;48.872;9.220;2022-10-16T16:53:01;1.20;;;1.00;;
31438;SDS011;18062;48.872;9.220;2022-10-16T16:55:27;0.87;;;0.87;;
31438;SDS011;18062;48.872;9.220;2022-10-16T16:57:53;0.97;;;0.87;;
31438;SDS011;18062;48.872;9.220;2022-10-16T17:00:19;1.10;;;1.00;;
31438;SDS011;18062;48.872;9.220;2022-10-16T17:02:47;0.70;;;0.70;;
31438;SDS011;18062;48.872;9.220;2022-10-16T17:05:14;1.10;;;1.00;;
31438;SDS011;18062;48.872;9.220;2022-10-16T17:07:40;0.97;;;0.83;;
31438;SDS011;18062;48.872;9.220;2022-10-16T17:10:06;1.00;;;0.80;;
31438;SDS011;18062;48.872;9.220;2022-10-16T17:12:33;0.90;;;0.90;;
31438;SDS011;18062;48.872;9.220;2022-10-16T17:14:59;1.00;;;0.90;;
31438;SDS011;18062;48.872;9.220;2022-10-16T17:17:25;1.00;;;0.90;;
31438;SDS011;18062;48.872;9.220;2022-10-16T17:19:51;1.03;;;0.93;;
31438;SDS011;18062;48.872;9.220;2022-10-16T17:22:17;0.97;;;0.90;;
31438;SDS011;18062;48.872;9.220;2022-10-16T17:24:44;1.53;;;1.03;;
31438;SDS011;18062;48.872;9.220;2022-10-16T17:27:10;1.10;;;1.00;;
31438;SDS011;18062;48.872;9.220;2022-10-16T17:29:36;1.20;;;1.10;;
31438;SDS011;18062;48.872;9.220;2022-10-16T17:32:03;1.27;;;1.10;;
31438;SDS011;18062;48.872;9.220;2022-10-16T17:34:32;1.43;;;1.20;;
31438;SDS011;18062;48.872;9.220;2022-10-16T17:36:59;1.03;;;0.93;;
31438;SDS011;18062;48.872;9.220;2022-10-16T17:39:25;1.13;;;0.97;;
31438;SDS011;18062;48.872;9.220;2022-10-16T17:41:51;0.70;;;0.70;;
31438;SDS011;18062;48.872;9.220;2022-10-16T17:44:17;1.77;;;1.40;;
31438;SDS011;18062;48.872;9.220;2022-10-16T17:46:53;1.37;;;1.10;;
31438;SDS011;18062;48.872;9.220;2022-10-16T17:49:19;1.20;;;1.10;;
31438;SDS011;18062;48.872;9.220;2022-10-16T17:51:48;1.13;;;1.03;;
31438;SDS011;18062;48.872;9.220;2022-10-16T17:54:14;1.23;;;1.10;;
31438;SDS011;18062;48.872;9.220;2022-10-16T17:56:40;1.27;;;1.17;;
31438;SDS011;18062;48.872;9.220;2022-10-16T17:59:06;1.70;;;1.57;;
31438;SDS011;18062;48.872;9.220;2022-10-16T18:01:33;1.60;;;1.50;;
31438;SDS011;18062;48.872;9.220;2022-10-16T18:04:02;1.50;;;1.40;;
31438;SDS011;18062;48.872;9.220;2022-10-16T18:06:29;1.53;;;1.40;;
31438;SDS011;18062;48.872;9.220;2022-10-16T18:08:56;1.77;;;1.40;;
31438;SDS011;18062;48.872;9.220;2022-10-16T18:11:22;2.87;;;1.80;;
31438;SDS011;18062;48.872;9.220;2022-10-16T18:13:52;2.57;;;1.80;;
31438;SDS011;18062;48.872;9.220;2022-10-16T18:16:18;4.33;;;1.97;;
31438;SDS011;18062;48.872;9.220;2022-10-16T18:18:45;1.73;;;1.57;;
31438;SDS011;18062;48.872;9.220;2022-10-16T18:21:13;1.57;;;1.40;;
31438;SDS011;18062;48.872;9.220;2022-10-16T18:23:39;1.60;;;1.50;;
31438;SDS011;18062;48.872;9.220;2022-10-16T18:26:06;1.40;;;1.30;;
31438;SDS011;18062;48.872;9.220;2022-10-16T18:28:32;1.73;;;1.40;;
31438;SDS011;18062;48.872;9.220;2022-10-16T18:30:59;1.47;;;1.37;;
31438;SDS011;18062;48.872;9.220;2022-10-16T18:33:26;1.50;;;1.40;;
31438;SDS011;18062;48.872;9.220;2022-10-16T18:35:52;1.50;;;1.40;;
31438;SDS011;18062;48.872;9.220;2022-10-16T18:38:18;1.67;;;1.10;;
31438;SDS011;18062;48.872;9.220;2022-10-16T18:40:45;1.43;;;1.23;;
31438;SDS011;18062;48.872;9.220;2022-10-16T18:43:11;1.77;;;1.50;;
31438;SDS011;18062;48.872;9.220;2022-10-16T18:45:37;2.37;;;1.33;;
31438;SDS011;18062;48.872;9.220;2022-10-16T18:48:03;1.50;;;1.30;;
31438;SDS011;18062;48.872;9.220;2022-10-16T18:50:29;1.47;;;1.37;;
31438;SDS011;18062;48.872;9.220;2022-10-16T18:52:55;1.27;;;1.17;;
31438;SDS011;18062;48.872;9.220;2022-10-16T18:55:22;1.97;;;1.47;;
31438;SDS011;18062;48.872;9.220;2022-10-16T18:57:49;3.90;;;3.13;;
31438;SDS011;18062;48.872;9.220;2022-10-16T19:00:15;3.63;;;2.97;;
31438;SDS011;18062;48.872;9.220;2022-10-16T19:02:41;2.37;;;2.00;;
31438;SDS011;18062;48.872;9.220;2022-10-16T19:05:07;1.60;;;1.50;;
31438;SDS011;18062;48.872;9.220;2022-10-16T19:07:34;1.40;;;1.30;;
31438;SDS011;18062;48.872;9.220;2022-10-16T19:10:00;1.50;;;1.40;;
31438;SDS011;18062;48.872;9.220;2022-10-16T19:12:29;1.40;;;1.20;;
31438;SDS011;18062;48.872;9.220;2022-10-16T19:14:55;1.60;;;1.20;;
31438;SDS011;18062;48.872;9.220;2022-10-16T19:17:21;0.90;;;0.90;;
31438;SDS011;18062;48.872;9.220;2022-10-16T19:19:47;2.03;;;1.40;;
31438;SDS011;18062;48.872;9.220;2022-10-16T19:22:13;1.33;;;1.23;;
31438;SDS011;18062;48.872;9.220;2022-10-16T19:24:51;1.47;;;1.20;;
31438;SDS011;18062;48.872;9.220;2022-10-16T19:27:17;1.60;;;1.40;;
31438;SDS011;18062;48.872;9.220;2022-10-16T19:29:43;2.20;;;1.67;;
31438;SDS011;18062;48.872;9.220;2022-10-16T19:32:09;2.67;;;1.80;;
31438;SDS011;18062;48.872;9.220;2022-10-16T19:34:35;2.90;;;1.80;;
31438;SDS011;18062;48.872;9.220;2022-10-16T19:37:01;1.47;;;1.30;;
31438;SDS011;18062;48.872;9.220;2022-10-16T19:39:27;1.30;;;1.20;;
31438;SDS011;18062;48.872;9.220;2022-10-16T19:41:53;1.20;;;1.10;;
31438;SDS011;18062;48.872;9.220;2022-10-16T19:44:19;1.20;;;1.10;;
31438;SDS011;18062;48.872;9.220;2022-10-16T19:46:45;1.30;;;1.13;;
31438;SDS011;18062;48.872;9.220;2022-10-16T19:49:15;1.63;;;1.13;;
31438;SDS011;18062;48.872;9.220;2022-10-16T19:51:46;1.30;;;1.20;;
31438;SDS011;18062;48.872;9.220;2022-10-16T19:54:13;1.23;;;1.10;;
31438;SDS011;18062;48.872;9.220;2022-10-16T19:56:40;1.23;;;0.87;;
31438;SDS011;18062;48.872;9.220;2022-10-16T19:59:07;1.20;;;1.07;;
31438;SDS011;18062;48.872;9.220;2022-10-16T20:01:33;1.23;;;1.13;;
31438;SDS011;18062;48.872;9.220;2022-10-16T20:03:59;1.77;;;1.30;;
31438;SDS011;18062;48.872;9.220;2022-10-16T20:06:25;1.33;;;1.20;;
31438;SDS011;18062;48.872;9.220;2022-10-16T20:08:52;1.00;;;1.00;;
31438;SDS011;18062;48.872;9.220;2022-10-16T20:11:20;1.20;;;1.03;;
31438;SDS011;18062;48.872;9.220;2022-10-16T20:13:47;1.20;;;1.10;;
31438;SDS011;18062;48.872;9.220;2022-10-16T20:16:13;1.53;;;1.37;;
31438;SDS011;18062;48.872;9.220;2022-10-16T20:18:41;1.13;;;1.03;;
31438;SDS011;18062;48.872;9.220;2022-10-16T20:21:11;1.90;;;1.20;;
31438;SDS011;18062;48.872;9.220;2022-10-16T20:23:38;2.60;;;1.10;;
31438;SDS011;18062;48.872;9.220;2022-10-16T20:26:04;1.97;;;1.10;;
31438;SDS011;18062;48.872;9.220;2022-10-16T20:28:30;1.77;;;1.30;;
31438;SDS011;18062;48.872;9.220;2022-10-16T20:30:56;1.30;;;1.20;;
31438;SDS011;18062;48.872;9.220;2022-10-16T20:33:25;1.47;;;1.07;;
31438;SDS011;18062;48.872;9.220;2022-10-16T20:35:51;1.40;;;1.30;;
31438;SDS011;18062;48.872;9.220;2022-10-16T20:38:17;1.30;;;1.20;;
31438;SDS011;18062;48.872;9.220;2022-10-16T20:40:44;1.13;;;1.03;;
31438;SDS011;18062;48.872;9.220;2022-10-16T20:43:11;0.90;;;0.90;;
31438;SDS011;18062;48.872;9.220;2022-10-16T20:45:38;1.50;;;1.30;;
31438;SDS011;18062;48.872;9.220;2022-10-16T20:48:04;1.50;;;1.20;;
31438;SDS011;18062;48.872;9.220;2022-10-16T20:50:31;1.40;;;1.23;;
31438;SDS011;18062;48.872;9.220;2022-10-16T20:52:57;1.40;;;1.30;;
31438;SDS011;18062;48.872;9.220;2022-10-16T20:55:24;1.90;;;1.53;;
31438;SDS011;18062;48.872;9.220;2022-10-16T20:57:50;1.23;;;1.07;;
31438;SDS011;18062;48.872;9.220;2022-10-16T21:00:16;1.93;;;1.23;;
31438;SDS011;18062;48.872;9.220;2022-10-16T21:02:42;1.63;;;1.37;;
31438;SDS011;18062;48.872;9.220;2022-10-16T21:05:08;1.37;;;1.27;;
31438;SDS011;18062;48.872;9.220;2022-10-16T21:07:35;0.97;;;0.97;;
31438;SDS011;18062;48.872;9.220;2022-10-16T21:10:01;1.50;;;1.30;;
31438;SDS011;18062;48.872;9.220;2022-10-16T21:12:27;2.10;;;1.50;;
31438;SDS011;18062;48.872;9.220;2022-10-16T21:14:53;1.20;;;1.10;;
31438;SDS011;18062;48.872;9.220;2022-10-16T21:17:19;1.53;;;1.13;;
31438;SDS011;18062;48.872;9.220;2022-10-16T21:19:45;1.03;;;1.00;;
31438;SDS011;18062;48.872;9.220;2022-10-16T21:22:11;1.27;;;0.97;;
31438;SDS011;18062;48.872;9.220;2022-10-16T21:24:37;0.97;;;0.97;;
31438;SDS011;18062;48.872;9.220;2022-10-16T21:27:04;0.90;;;0.90;;
31438;SDS011;18062;48.872;9.220;2022-10-16T21:29:30;1.37;;;1.10;;
31438;SDS011;18062;48.872;9.220;2022-10-16T21:31:56;0.87;;;0.87;;
31438;SDS011;18062;48.872;9.220;2022-10-16T21:34:22;1.40;;;1.20;;
31438;SDS011;18062;48.872;9.220;2022-10-16T21:36:48;1.27;;;1.13;;
31438;SDS011;18062;48.872;9.220;2022-10-16T21:39:15;0.90;;;0.90;;
31438;SDS011;18062;48.872;9.220;2022-10-16T21:41:43;1.20;;;1.10;;
31438;SDS011;18062;48.872;9.220;2022-10-16T21:44:09;1.30;;;1.20;;
31438;SDS011;18062;48.872;9.220;2022-10-16T21:46:36;1.00;;;0.90;;
31438;SDS011;18062;48.872;9.220;2022-10-16T21:49:04;1.07;;;0.97;;
31438;SDS011;18062;48.872;9.220;2022-10-16T21:51:32;1.07;;;1.00;;
31438;SDS011;18062;48.872;9.220;2022-10-16T21:53:59;1.37;;;1.20;;
31438;SDS011;18062;48.872;9.220;2022-10-16T21:56:25;1.20;;;1.10;;
31438;SDS011;18062;48.872;9.220;2022-10-16T21:58:51;1.77;;;1.00;;
31438;SDS011;18062;48.872;9.220;2022-10-16T22:01:19;1.10;;;1.00;;
31438;SDS011;18062;48.872;9.220;2022-10-16T22:03:45;1.33;;;1.13;;
31438;SDS011;18062;48.872;9.220;2022-10-16T22:06:12;0.90;;;0.90;;
31438;SDS011;18062;48.872;9.220;2022-10-16T22:08:38;1.10;;;1.00;;
31438;SDS011;18062;48.872;9.220;2022-10-16T22:11:06;0.87;;;0.87;;
31438;SDS011;18062;48.872;9.220;2022-10-16T22:13:32;0.97;;;0.80;;
31438;SDS011;18062;48.872;9.220;2022-10-16T22:15:58;0.90;;;0.90;;
31438;SDS011;18062;48.872;9.220;2022-10-16T22:18:24;0.97;;;0.90;;
31438;SDS011;18062;48.872;9.220;2022-10-16T22:20:50;1.30;;;0.87;;
31438;SDS011;18062;48.872;9.220;2022-10-16T22:23:16;1.10;;;1.00;;
31438;SDS011;18062;48.872;9.220;2022-10-16T22:25:43;0.70;;;0.70;;
31438;SDS011;18062;48.872;9.220;2022-10-16T22:28:09;0.93;;;0.83;;
31438;SDS011;18062;48.872;9.220;2022-10-16T22:30:36;1.50;;;0.73;;
31438;SDS011;18062;48.872;9.220;2022-10-16T22:33:02;0.80;;;0.80;;
31438;SDS011;18062;48.872;9.220;2022-10-16T22:35:29;1.10;;;1.00;;
31438;SDS011;18062;48.872;9.220;2022-10-16T22:37:54;0.80;;;0.80;;
31438;SDS011;18062;48.872;9.220;2022-10-16T22:40:21;1.23;;;1.10;;
31438;SDS011;18062;48.872;9.220;2022-10-16T22:42:47;0.83;;;0.83;;
31438;SDS011;18062;48.872;9.220;2022-10-16T22:45:13;0.90;;;0.90;;
31438;SDS011;18062;48.872;9.220;2022-10-16T22:47:39;0.97;;;0.90;;
31438;SDS011;18062;48.872;9.220;2022-10-16T22:50:05;0.87;;;0.87;;
31438;SDS011;18062;48.872;9.220;2022-10-16T22:52:31;1.20;;;1.10;;
31438;SDS011;18062;48.872;9.220;2022-10-16T22:54:57;0.73;;;0.73;;
31438;SDS011;18062;48.872;9.220;2022-10-16T22:57:23;1.10;;;0.97;;
31438;SDS011;18062;48.872;9.220;2022-10-16T22:59:49;1.20;;;1.03;;
31438;SDS011;18062;48.872;9.220;2022-10-16T23:02:15;1.33;;;1.17;;
31438;SDS011;18062;48.872;9.220;2022-10-16T23:04:41;1.83;;;1.20;;
31438;SDS011;18062;48.872;9.220;2022-10-16T23:07:07;0.93;;;0.90;;
31438;SDS011;18062;48.872;9.220;2022-10-16T23:09:33;1.23;;;1.13;;
31438;SDS011;18062;48.872;9.220;2022-10-16T23:12:02;1.10;;;1.00;;
31438;SDS011;18062;48.872;9.220;2022-10-16T23:14:28;1.00;;;0.90;;
31438;SDS011;18062;48.872;9.220;2022-10-16T23:16:54;1.27;;;1.07;;
31438;SDS011;18062;48.872;9.220;2022-10-16T23:19:20;1.40;;;1.20;;
31438;SDS011;18062;48.872;9.220;2022-10-16T23:21:46;1.63;;;0.93;;
31438;SDS011;18062;48.872;9.220;2022-10-16T23:24:11;1.17;;;0.97;;
31438;SDS011;18062;48.872;9.220;2022-10-16T23:26:37;1.23;;;1.13;;
31438;SDS011;18062;48.872;9.220;2022-10-16T23:29:03;1.17;;;1.07;;
31438;SDS011;18062;48.872;9.220;2022-10-16T23:31:30;1.63;;;0.97;;
31438;SDS011;18062;48.872;9.220;2022-10-16T23:33:56;1.20;;;1.10;;
31438;SDS011;18062;48.872;9.220;2022-10-16T23:36:22;2.17;;;1.10;;
31438;SDS011;18062;48.872;9.220;2022-10-16T23:38:49;1.40;;;1.30;;
31438;SDS011;18062;48.872;9.220;2022-10-16T23:41:16;1.07;;;1.03;;
31438;SDS011;18062;48.872;9.220;2022-10-16T23:43:43;1.33;;;1.07;;
31438;SDS011;18062;48.872;9.220;2022-10-16T23:46:09;1.40;;;1.30;;
31438;SDS011;18062;48.872;9.220;2022-10-16T23:48:35;1.30;;;1.20;;
31438;SDS011;18062;48.872;9.220;2022-10-16T23:51:04;2.00;;;1.50;;
31438;SDS011;18062;48.872;9.220;2022-10-16T23:53:30;1.33;;;1.23;;
31438;SDS011;18062;48.872;9.220;2022-10-16T23:55:56;1.30;;;1.20;;
31438;SDS011;18062;48.872;9.220;2022-10-16T23:58:22;1.17;;;0.93;;
